createdAt,value
2023-05-25T00:02:06.911Z,100.00
2023-05-25T00:04:55.002Z,100.00
2023-05-25T00:07:42.877Z,100.00
2023-05-25T00:10:30.841Z,100.00
2023-05-25T00:13:18.626Z,100.00
2023-05-25T00:16:07.304Z,100.00
2023-05-25T00:18:57.903Z,100.00
2023-05-25T00:21:48.304Z,100.00
2023-05-25T00:24:36.340Z,100.00
2023-05-25T00:27:24.630Z,100.00
2023-05-25T00:30:13.421Z,100.00
2023-05-25T00:33:02.021Z,100.00
2023-05-25T00:35:52.702Z,100.00
2023-05-25T00:38:41.006Z,100.00
2023-05-25T00:41:29.381Z,100.00
2023-05-25T00:44:21.683Z,100.00
2023-05-25T00:47:09.842Z,100.00
2023-05-25T00:49:58.984Z,100.00
2023-05-25T00:52:48.762Z,100.00
2023-05-25T00:55:40.261Z,100.00
2023-05-25T00:58:31.082Z,100.00
2023-05-25T01:01:22.134Z,100.00
2023-05-25T01:04:13.425Z,100.00
2023-05-25T01:07:02.385Z,100.00
2023-05-25T01:09:58.177Z,100.00
2023-05-25T01:12:47.081Z,100.00
2023-05-25T01:15:35.245Z,100.00
2023-05-25T01:18:23.107Z,100.00
2023-05-25T01:21:20.351Z,100.00
2023-05-25T01:24:17.657Z,100.00
2023-05-25T01:27:14.043Z,100.00
2023-05-25T01:30:03.830Z,100.00
2023-05-25T01:32:52.003Z,100.00
2023-05-25T01:35:40.565Z,100.00
2023-05-25T01:38:29.714Z,100.00
2023-05-25T01:41:17.746Z,100.00
2023-05-25T01:44:07.709Z,100.00
2023-05-25T01:47:03.754Z,100.00
2023-05-25T01:50:01.317Z,100.00
2023-05-25T01:52:54.922Z,100.00
2023-05-25T01:55:54.860Z,100.00
2023-05-25T01:58:45.623Z,100.00
2023-05-25T02:01:36.606Z,100.00
2023-05-25T02:04:24.666Z,100.00
2023-05-25T02:07:12.522Z,100.00
2023-05-25T02:10:00.670Z,100.00
2023-05-25T02:12:49.735Z,100.00
2023-05-25T02:15:37.785Z,100.00
2023-05-25T02:18:26.506Z,100.00
2023-05-25T02:21:14.321Z,100.00
2023-05-25T02:24:02.021Z,100.00
2023-05-25T02:26:49.730Z,100.00
2023-05-25T02:29:38.923Z,100.00
2023-05-25T02:32:26.624Z,100.00
2023-05-25T02:35:14.695Z,100.00
2023-05-25T02:38:02.849Z,100.00
2023-05-25T02:40:50.828Z,100.00
2023-05-25T02:43:39.385Z,100.00
2023-05-25T02:46:28.765Z,100.00
2023-05-25T02:49:16.789Z,100.00
2023-05-25T02:52:05.175Z,100.00
2023-05-25T02:54:53.115Z,100.00
2023-05-25T02:57:41.081Z,100.00
2023-05-25T03:00:28.825Z,100.00
2023-05-25T03:03:17.929Z,100.00
2023-05-25T03:06:05.961Z,100.00
2023-05-25T03:08:53.868Z,100.00
2023-05-25T03:11:41.587Z,100.00
2023-05-25T03:14:29.590Z,100.00
2023-05-25T03:17:17.405Z,100.00
2023-05-25T03:20:10.613Z,100.00
2023-05-25T03:22:58.445Z,100.00
2023-05-25T03:25:46.819Z,100.00
2023-05-25T03:28:34.861Z,100.00
2023-05-25T03:31:22.563Z,100.00
2023-05-25T03:34:10.677Z,100.00
2023-05-25T03:36:59.821Z,100.00
2023-05-25T03:39:47.610Z,100.00
2023-05-25T03:42:35.570Z,100.00
2023-05-25T03:45:23.359Z,100.00
2023-05-25T03:48:11.237Z,100.00
2023-05-25T03:50:59.203Z,100.00
2023-05-25T03:53:48.540Z,100.00
2023-05-25T03:56:36.709Z,100.00
2023-05-25T03:59:25.654Z,100.00
2023-05-25T04:02:13.441Z,100.00
2023-05-25T04:05:01.122Z,100.00
2023-05-25T04:07:49.151Z,100.00
2023-05-25T04:10:38.251Z,100.00
2023-05-25T04:13:26.388Z,100.00
2023-05-25T04:16:14.832Z,100.00
2023-05-25T04:19:02.546Z,100.00
2023-05-25T04:21:50.298Z,100.00
2023-05-25T04:24:37.961Z,100.00
2023-05-25T04:27:28.485Z,100.00
2023-05-25T04:30:16.761Z,99.84
2023-05-25T04:33:04.967Z,99.63
2023-05-25T04:35:54.483Z,100.00
2023-05-25T04:38:43.047Z,99.82
2023-05-25T04:41:31.090Z,99.90
2023-05-25T04:44:20.674Z,98.59
2023-05-25T04:47:08.787Z,100.00
2023-05-25T04:49:56.836Z,100.00
2023-05-25T04:52:44.561Z,100.00
2023-05-25T04:55:32.299Z,98.27
2023-05-25T04:58:19.971Z,97.75
2023-05-25T05:01:09.097Z,99.49
2023-05-25T05:03:57.101Z,97.83
2023-05-25T05:06:45.430Z,98.92
2023-05-25T05:09:33.283Z,99.03
2023-05-25T05:12:21.381Z,100.00
2023-05-25T05:15:09.894Z,100.00
2023-05-25T05:17:58.992Z,100.00
2023-05-25T05:20:47.087Z,96.95
2023-05-25T05:23:34.830Z,98.27
2023-05-25T05:26:23.120Z,99.11
2023-05-25T05:29:11.209Z,97.62
2023-05-25T05:31:59.205Z,97.10
2023-05-25T05:34:48.377Z,95.36
2023-05-25T05:37:36.354Z,95.50
2023-05-25T05:40:26.214Z,93.98
2023-05-25T05:43:15.144Z,93.59
2023-05-25T05:46:03.225Z,93.30
2023-05-25T05:48:51.061Z,93.29
2023-05-25T05:51:40.241Z,94.14
2023-05-25T05:54:29.118Z,93.72
2023-05-25T05:57:16.777Z,93.38
2023-05-25T06:00:06.992Z,93.43
2023-05-25T06:02:55.178Z,92.53
2023-05-25T06:05:43.498Z,93.01
2023-05-25T06:08:32.784Z,92.84
2023-05-25T06:11:20.462Z,93.24
2023-05-25T06:14:08.503Z,92.16
2023-05-25T06:16:56.359Z,91.69
2023-05-25T06:19:44.395Z,91.36
2023-05-25T06:22:33.421Z,90.80
2023-05-25T06:25:22.958Z,88.24
2023-05-25T06:28:10.778Z,87.24
2023-05-25T06:30:58.852Z,86.92
2023-05-25T06:33:46.704Z,86.83
2023-05-25T06:36:34.405Z,88.19
2023-05-25T06:39:22.318Z,88.69
2023-05-25T06:42:12.434Z,87.69
2023-05-25T06:45:00.515Z,88.38
2023-05-25T06:47:48.342Z,87.65
2023-05-25T06:50:36.093Z,87.01
2023-05-25T06:53:23.855Z,86.85
2023-05-25T06:56:11.741Z,86.56
2023-05-25T06:59:01.118Z,86.77
2023-05-25T07:01:48.854Z,85.76
2023-05-25T07:04:36.964Z,86.25
2023-05-25T07:07:24.704Z,84.68
2023-05-25T07:10:12.804Z,86.52
2023-05-25T07:13:00.431Z,86.95
2023-05-25T07:15:49.569Z,84.40
2023-05-25T07:18:40.796Z,85.31
2023-05-25T07:21:28.730Z,84.45
2023-05-25T07:24:16.566Z,85.61
2023-05-25T07:27:04.928Z,85.30
2023-05-25T07:29:52.798Z,85.51
2023-05-25T07:32:42.649Z,84.38
2023-05-25T07:35:30.508Z,83.32
2023-05-25T07:38:18.660Z,84.45
2023-05-25T07:41:06.572Z,83.49
2023-05-25T07:43:54.441Z,82.88
2023-05-25T07:46:42.191Z,80.34
2023-05-25T07:49:31.274Z,81.79
2023-05-25T07:52:19.634Z,82.05
2023-05-25T07:55:08.402Z,79.10
2023-05-25T07:57:56.418Z,79.40
2023-05-25T08:00:44.695Z,80.89
2023-05-25T08:03:48.262Z,80.60
2023-05-25T08:06:38.613Z,81.03
2023-05-25T08:09:26.279Z,80.53
2023-05-25T08:12:34.295Z,77.91
2023-05-25T08:15:21.775Z,78.68
2023-05-25T08:18:09.816Z,78.84
2023-05-25T08:20:57.848Z,78.59
2023-05-25T08:23:47.043Z,78.61
2023-05-25T08:26:53.085Z,75.83
2023-05-25T08:29:42.282Z,75.30
2023-05-25T08:32:30.037Z,76.04
2023-05-25T08:35:18.168Z,74.94
2023-05-25T08:38:06.024Z,72.24
2023-05-25T08:41:05.903Z,74.33
2023-05-25T08:43:54.201Z,73.39
2023-05-25T08:46:42.296Z,75.65
2023-05-25T08:49:31.630Z,77.02
2023-05-25T08:52:23.509Z,76.17
2023-05-25T08:55:12.357Z,74.25
2023-05-25T08:58:08.264Z,75.26
2023-05-25T09:00:59.799Z,76.21
2023-05-25T09:03:48.336Z,76.37
2023-05-25T09:06:38.617Z,75.77
2023-05-25T09:09:26.874Z,75.96
2023-05-25T09:12:16.562Z,76.20
2023-05-25T09:15:06.319Z,74.74
2023-05-25T09:17:54.182Z,74.88
2023-05-25T09:20:45.105Z,74.17
2023-05-25T09:23:35.588Z,75.86
2023-05-25T09:26:23.625Z,76.18
2023-05-25T09:29:14.663Z,76.15
2023-05-25T09:32:05.681Z,73.14
2023-05-25T09:34:55.588Z,74.28
2023-05-25T09:37:44.770Z,74.47
2023-05-25T09:40:34.365Z,74.50
2023-05-25T09:43:36.424Z,72.92
2023-05-25T09:46:28.407Z,74.25
2023-05-25T09:49:17.671Z,74.09
2023-05-25T09:52:06.059Z,74.27
2023-05-25T09:54:55.053Z,73.03
2023-05-25T09:57:44.286Z,70.27
2023-05-25T10:00:32.361Z,69.63
2023-05-25T10:03:21.954Z,68.53
2023-05-25T10:06:11.683Z,66.79
2023-05-25T10:08:59.771Z,67.64
2023-05-25T10:11:48.034Z,67.81
2023-05-25T10:14:38.872Z,68.07
2023-05-25T10:17:29.059Z,70.05
2023-05-25T10:20:17.432Z,71.02
2023-05-25T10:23:12.608Z,72.58
2023-05-25T10:26:04.662Z,71.26
2023-05-25T10:28:53.127Z,71.07
2023-05-25T10:31:41.430Z,70.18
2023-05-25T10:34:30.131Z,69.46
2023-05-25T10:37:18.243Z,69.64
2023-05-25T10:40:09.722Z,70.94
2023-05-25T10:42:57.804Z,70.73
2023-05-25T10:45:45.833Z,69.35
2023-05-25T10:48:37.887Z,69.25
2023-05-25T10:51:38.630Z,68.71
2023-05-25T10:54:30.369Z,66.55
2023-05-25T10:57:24.460Z,66.90
2023-05-25T11:00:14.775Z,65.20
2023-05-25T11:03:03.396Z,64.90
2023-05-25T11:05:52.246Z,63.73
2023-05-25T11:08:55.853Z,61.72
2023-05-25T11:12:03.775Z,62.70
2023-05-25T11:15:15.508Z,65.11
2023-05-25T11:18:03.578Z,64.67
2023-05-25T11:20:51.501Z,66.07
2023-05-25T11:23:53.296Z,63.79
2023-05-25T11:26:54.798Z,64.39
2023-05-25T11:29:42.591Z,64.99
2023-05-25T11:32:31.763Z,65.55
2023-05-25T11:35:19.494Z,67.12
2023-05-25T11:38:08.623Z,66.95
2023-05-25T11:40:56.695Z,68.15
2023-05-25T11:43:46.912Z,68.06
2023-05-25T11:46:35.531Z,66.84
2023-05-25T11:49:25.978Z,67.28
2023-05-25T11:52:15.388Z,66.24
2023-05-25T11:55:03.290Z,67.34
2023-05-25T11:57:58.855Z,67.94
2023-05-25T12:00:46.676Z,68.00
2023-05-25T12:03:34.766Z,67.93
2023-05-25T12:06:28.741Z,64.55
2023-05-25T12:09:21.009Z,65.33
2023-05-25T12:12:09.396Z,66.68
2023-05-25T12:14:59.094Z,69.86
2023-05-25T12:17:47.233Z,68.77
2023-05-25T12:20:38.815Z,70.79
2023-05-25T12:23:28.145Z,66.59
2023-05-25T12:26:17.752Z,68.79
2023-05-25T12:29:07.265Z,71.81
2023-05-25T12:32:02.670Z,73.08
2023-05-25T12:34:50.527Z,74.45
2023-05-25T12:37:38.333Z,74.41
2023-05-25T12:40:28.723Z,75.46
2023-05-25T12:43:17.729Z,76.59
2023-05-25T12:46:05.634Z,77.34
2023-05-25T12:48:53.439Z,77.85
2023-05-25T12:51:41.200Z,76.22
2023-05-25T12:54:45.848Z,75.68
2023-05-25T12:57:36.898Z,77.36
2023-05-25T13:00:26.788Z,77.99
2023-05-25T13:03:14.628Z,77.72
2023-05-25T13:06:03.427Z,77.83
2023-05-25T13:08:51.383Z,76.99
2023-05-25T13:11:39.112Z,75.42
2023-05-25T13:14:28.460Z,67.43
2023-05-25T13:17:16.351Z,68.15
2023-05-25T13:20:05.131Z,64.57
2023-05-25T13:22:55.739Z,72.20
2023-05-25T13:25:43.601Z,76.83
2023-05-25T13:28:31.486Z,89.43
2023-05-25T13:31:20.658Z,94.86
2023-05-25T13:34:08.674Z,100.00
2023-05-25T13:36:56.649Z,100.00
2023-05-25T13:39:44.584Z,100.00
2023-05-25T13:42:32.468Z,97.36
2023-05-25T13:45:20.674Z,99.08
2023-05-25T13:48:09.828Z,100.00
2023-05-25T13:50:57.606Z,97.96
2023-05-25T13:53:45.784Z,98.16
2023-05-25T13:56:33.541Z,99.65
2023-05-25T13:59:21.573Z,100.00
2023-05-25T14:02:09.287Z,100.00
2023-05-25T14:04:58.629Z,100.00
2023-05-25T14:07:47.186Z,100.00
2023-05-25T14:10:35.000Z,100.00
2023-05-25T14:13:23.046Z,100.00
2023-05-25T14:16:10.985Z,100.00
2023-05-25T14:18:58.985Z,100.00
2023-05-25T14:21:56.673Z,100.00
2023-05-25T14:24:51.976Z,100.00
2023-05-25T14:27:39.853Z,100.00
2023-05-25T14:30:27.585Z,100.00
2023-05-25T14:33:17.382Z,100.00
2023-05-25T14:36:06.090Z,100.00
2023-05-25T14:38:55.220Z,100.00
2023-05-25T14:41:43.262Z,100.00
2023-05-25T14:44:30.952Z,100.00
2023-05-25T14:47:18.722Z,100.00
2023-05-25T14:50:07.528Z,100.00
2023-05-25T14:52:55.220Z,100.00
2023-05-25T14:55:44.625Z,100.00
2023-05-25T14:58:32.978Z,100.00
2023-05-25T15:01:23.094Z,100.00
2023-05-25T15:04:13.081Z,100.00
2023-05-25T15:07:01.514Z,100.00
2023-05-25T15:09:49.542Z,100.00
2023-05-25T15:12:38.667Z,100.00
2023-05-25T15:15:26.622Z,100.00
2023-05-25T15:18:14.430Z,100.00
2023-05-25T15:21:02.456Z,100.00
2023-05-25T15:23:50.276Z,100.00
2023-05-25T15:26:37.920Z,100.00
2023-05-25T15:29:27.037Z,100.00
2023-05-25T15:32:17.844Z,100.00
2023-05-25T15:35:06.384Z,100.00
2023-05-25T15:37:54.056Z,100.00
2023-05-25T15:40:41.841Z,100.00
2023-05-25T15:43:29.520Z,100.00
2023-05-25T15:46:18.652Z,100.00
2023-05-25T15:49:10.965Z,100.00
2023-05-25T15:51:58.666Z,98.36
2023-05-25T15:54:46.555Z,94.25
2023-05-25T15:57:34.366Z,94.59
2023-05-25T16:00:22.500Z,94.61
2023-05-25T16:03:11.673Z,96.47
2023-05-25T16:05:59.851Z,97.09
2023-05-25T16:08:47.716Z,97.94
2023-05-25T16:11:35.612Z,97.15
2023-05-25T16:14:23.641Z,92.70
2023-05-25T16:17:11.980Z,94.30
2023-05-25T16:20:01.224Z,95.99
2023-05-25T16:22:48.962Z,96.01
2023-05-25T16:25:36.756Z,96.53
2023-05-25T16:28:24.632Z,96.59
2023-05-25T16:31:13.538Z,94.17
2023-05-25T16:34:01.656Z,89.69
2023-05-25T16:36:50.832Z,89.34
2023-05-25T16:39:38.622Z,90.90
2023-05-25T16:42:26.414Z,91.06
2023-05-25T16:45:14.110Z,90.46
2023-05-25T16:48:01.757Z,90.84
2023-05-25T16:50:49.564Z,91.53
2023-05-25T16:53:38.756Z,91.17
2023-05-25T16:56:26.862Z,90.74
2023-05-25T16:59:14.874Z,89.89
2023-05-25T17:02:02.562Z,90.49
2023-05-25T17:04:50.401Z,93.21
2023-05-25T17:07:39.374Z,91.57
2023-05-25T17:10:28.457Z,94.88
2023-05-25T17:13:16.802Z,95.57
2023-05-25T17:16:04.554Z,96.88
2023-05-25T17:18:52.552Z,94.25
2023-05-25T17:21:40.256Z,94.25
2023-05-25T17:24:28.072Z,93.59
2023-05-25T17:27:17.667Z,94.05
2023-05-25T17:30:06.128Z,95.94
2023-05-25T17:32:54.634Z,94.71
2023-05-25T17:35:42.333Z,95.34
2023-05-25T17:38:30.307Z,93.72
2023-05-25T17:41:18.200Z,92.81
2023-05-25T17:44:07.599Z,96.58
2023-05-25T17:46:55.256Z,98.66
2023-05-25T17:49:43.121Z,96.37
2023-05-25T17:52:31.745Z,95.40
2023-05-25T17:55:20.640Z,94.83
2023-05-25T17:58:08.563Z,97.20
2023-05-25T18:00:57.844Z,97.83
2023-05-25T18:03:45.952Z,96.97
2023-05-25T18:06:34.139Z,97.72
2023-05-25T18:09:22.363Z,97.28
2023-05-25T18:12:10.578Z,98.24
2023-05-25T18:14:58.162Z,97.35
2023-05-25T18:17:47.384Z,95.55
2023-05-25T18:20:35.343Z,96.61
2023-05-25T18:23:23.394Z,95.62
2023-05-25T18:26:11.041Z,96.61
2023-05-25T18:28:58.691Z,96.12
2023-05-25T18:31:48.911Z,99.20
2023-05-25T18:34:38.125Z,98.66
2023-05-25T18:37:26.662Z,98.45
2023-05-25T18:40:14.706Z,96.39
2023-05-25T18:43:02.589Z,99.77
2023-05-25T18:45:50.260Z,100.00
2023-05-25T18:48:37.923Z,100.00
2023-05-25T18:51:26.996Z,100.00
2023-05-25T18:54:14.881Z,97.57
2023-05-25T18:57:03.054Z,97.64
2023-05-25T18:59:50.948Z,100.00
2023-05-25T19:02:39.115Z,100.00
2023-05-25T19:05:27.555Z,97.79
2023-05-25T19:08:16.797Z,99.48
2023-05-25T19:11:04.530Z,100.00
2023-05-25T19:13:52.307Z,98.59
2023-05-25T19:16:40.136Z,98.67
2023-05-25T19:19:27.864Z,100.00
2023-05-25T19:22:18.356Z,100.00
2023-05-25T19:25:08.729Z,100.00
2023-05-25T19:27:58.691Z,100.00
2023-05-25T19:30:46.447Z,100.00
2023-05-25T19:33:34.174Z,100.00
2023-05-25T19:36:22.810Z,100.00
2023-05-25T19:39:10.492Z,100.00
2023-05-25T19:42:00.308Z,100.00
2023-05-25T19:44:48.234Z,100.00
2023-05-25T19:47:36.024Z,100.00
2023-05-25T19:50:23.822Z,100.00
2023-05-25T19:53:11.561Z,100.00
2023-05-25T19:55:59.797Z,100.00
2023-05-25T19:58:48.886Z,100.00
2023-05-25T20:01:38.334Z,100.00
2023-05-25T20:04:26.432Z,100.00
2023-05-25T20:07:14.464Z,100.00
2023-05-25T20:10:02.107Z,100.00
2023-05-25T20:12:49.913Z,100.00
2023-05-25T20:15:39.163Z,100.00
2023-05-25T20:18:26.916Z,100.00
2023-05-25T20:21:15.003Z,100.00
2023-05-25T20:24:03.537Z,100.00
2023-05-25T20:26:56.619Z,100.00
2023-05-25T20:29:44.575Z,100.00
2023-05-25T20:32:33.785Z,100.00
2023-05-25T20:35:21.936Z,100.00
2023-05-25T20:38:09.709Z,100.00
2023-05-25T20:40:57.529Z,100.00
2023-05-25T20:43:45.309Z,100.00
2023-05-25T20:46:33.248Z,100.00
2023-05-25T20:49:24.459Z,100.00
2023-05-25T20:52:13.675Z,100.00
2023-05-25T20:55:01.585Z,100.00
2023-05-25T20:57:49.528Z,100.00
2023-05-25T21:00:37.284Z,100.00
2023-05-25T21:03:25.107Z,100.00
2023-05-25T21:06:14.555Z,100.00
2023-05-25T21:09:02.385Z,100.00
2023-05-25T21:11:50.305Z,100.00
2023-05-25T21:14:38.238Z,100.00
2023-05-25T21:17:26.097Z,100.00
2023-05-25T21:20:14.061Z,100.00
2023-05-25T21:23:03.245Z,100.00
2023-05-25T21:25:50.963Z,100.00
2023-05-25T21:28:38.873Z,100.00
2023-05-25T21:31:26.790Z,100.00
2023-05-25T21:34:15.056Z,100.00
2023-05-25T21:37:03.357Z,100.00
2023-05-25T21:39:52.598Z,100.00
2023-05-25T21:42:40.333Z,100.00
2023-05-25T21:45:28.139Z,100.00
2023-05-25T21:48:16.031Z,100.00
2023-05-25T21:51:03.936Z,100.00
2023-05-25T21:53:52.045Z,100.00
2023-05-25T21:56:41.128Z,100.00
2023-05-25T21:59:28.990Z,100.00
2023-05-25T22:02:16.780Z,100.00
2023-05-25T22:05:04.885Z,100.00
2023-05-25T22:07:55.040Z,100.00
2023-05-25T22:10:43.448Z,100.00
2023-05-25T22:13:32.779Z,100.00
2023-05-25T22:16:20.543Z,100.00
2023-05-25T22:19:08.845Z,100.00
2023-05-25T22:21:56.547Z,100.00
2023-05-25T22:24:44.250Z,100.00
2023-05-25T22:27:32.133Z,100.00
2023-05-25T22:30:21.285Z,100.00
2023-05-25T22:33:09.354Z,100.00
2023-05-25T22:35:57.091Z,100.00
2023-05-25T22:38:44.962Z,100.00
2023-05-25T22:41:32.725Z,100.00
2023-05-25T22:44:20.504Z,100.00
2023-05-25T22:47:09.618Z,100.00
2023-05-25T22:49:57.385Z,100.00
2023-05-25T22:52:45.466Z,100.00
2023-05-25T22:55:33.363Z,99.70
2023-05-25T22:58:21.224Z,100.00
2023-05-25T23:01:08.889Z,99.06
2023-05-25T23:03:59.653Z,100.00
2023-05-25T23:06:47.580Z,100.00
2023-05-25T23:09:35.309Z,99.61
2023-05-25T23:12:23.266Z,100.00
2023-05-25T23:15:12.331Z,99.38
2023-05-25T23:18:00.269Z,100.00
2023-05-25T23:20:50.489Z,100.00
2023-05-25T23:23:38.306Z,100.00
2023-05-25T23:26:26.630Z,100.00
2023-05-25T23:29:14.367Z,100.00
2023-05-25T23:32:02.520Z,100.00
2023-05-25T23:34:50.348Z,100.00
2023-05-25T23:37:39.639Z,100.00
2023-05-25T23:40:27.356Z,100.00
2023-05-25T23:43:15.218Z,100.00
2023-05-25T23:46:03.364Z,100.00
2023-05-25T23:48:51.273Z,100.00
2023-05-25T23:51:39.198Z,100.00
2023-05-25T23:54:28.253Z,100.00
2023-05-25T23:57:16.155Z,100.00
